Time;durP1;ratioP1;P1;durP2;ratioP2;P2;SDS_P1;SDS_P2;PMS_P1;PMS_P2;Temp;Humidity;BMP_temperature;BMP_pressure;BME280_temperature;BME280_humidity;BME280_pressure;Samples;Min_cycle;Max_cycle;Signal;HPM_P1;HPM_P2
2023/02/23 00:01:15;;;;;;;32.43;13.57;;;6.10;1.00;;;;;;5034664;28;20824;-66
2023/02/23 00:03:42;;;;;;;27.17;14.07;;;6.10;1.00;;;;;;5035010;28;20455;-68
2023/02/23 00:06:12;;;;;;;27.73;12.60;;;6.10;1.00;;;;;;5034897;28;20869;-66
2023/02/23 00:08:39;;;;;;;30.30;13.23;;;6.00;1.00;;;;;;5034798;28;20460;-67
2023/02/23 00:11:11;;;;;;;25.13;13.23;;;6.00;1.00;;;;;;5034930;28;20466;-67
2023/02/23 00:13:39;;;;;;;24.03;14.10;;;6.10;1.00;;;;;;5034473;28;20514;-67
2023/02/23 00:16:07;;;;;;;22.40;13.33;;;6.20;1.00;;;;;;5034361;28;20484;-67
2023/02/23 00:18:43;;;;;;;21.30;13.87;;;6.30;99.90;;;;;;5034425;28;20456;-67
2023/02/23 00:21:14;;;;;;;23.57;13.60;;;6.20;99.90;;;;;;5034479;28;20455;-67
2023/02/23 00:23:42;;;;;;;23.40;13.37;;;6.10;99.90;;;;;;5034223;28;20559;-67
2023/02/23 00:26:09;;;;;;;23.77;12.57;;;6.00;1.00;;;;;;5033330;28;20765;-67
2023/02/23 00:28:36;;;;;;;25.17;12.50;;;6.20;1.00;;;;;;5034285;28;20897;-67
2023/02/23 00:31:04;;;;;;;27.60;13.70;;;6.20;99.90;;;;;;5034219;28;20559;-67
2023/02/23 00:33:30;;;;;;;23.67;13.23;;;6.20;99.90;;;;;;5033845;28;20529;-67
2023/02/23 00:36:04;;;;;;;21.43;12.70;;;6.20;99.90;;;;;;5033689;28;20964;-67
2023/02/23 00:38:34;;;;;;;23.53;13.70;;;6.10;99.90;;;;;;5033991;28;20440;-66
2023/02/23 00:41:05;;;;;;;21.67;13.30;;;6.10;99.90;;;;;;5034327;28;20449;-68
2023/02/23 00:43:34;;;;;;;22.53;13.93;;;6.10;99.90;;;;;;5034827;28;20452;-67
2023/02/23 00:46:04;;;;;;;28.50;14.40;;;6.10;99.90;;;;;;5034278;28;20487;-67
2023/02/23 00:48:31;;;;;;;22.23;13.43;;;6.00;99.90;;;;;;5034514;28;20914;-67
2023/02/23 00:50:59;;;;;;;21.97;13.83;;;6.00;99.90;;;;;;5034361;28;20466;-67
2023/02/23 00:53:26;;;;;;;34.03;14.40;;;6.00;1.00;;;;;;5034046;28;20456;-67
2023/02/23 00:55:56;;;;;;;23.77;13.13;;;6.00;99.90;;;;;;5034062;28;20491;-67
2023/02/23 00:58:23;;;;;;;20.47;12.90;;;5.90;1.00;;;;;;5034049;28;20452;-67
2023/02/23 01:00:50;;;;;;;23.60;13.10;;;6.00;1.00;;;;;;5034236;28;20460;-68
2023/02/23 01:03:16;;;;;;;23.03;13.53;;;6.00;1.00;;;;;;5034273;28;20566;-67
2023/02/23 01:05:43;;;;;;;31.30;14.23;;;6.10;1.00;;;;;;5033881;28;20960;-67
2023/02/23 01:08:10;;;;;;;21.70;13.67;;;6.00;99.90;;;;;;5033772;28;20455;-68
2023/02/23 01:10:41;;;;;;;26.03;13.90;;;6.00;99.90;;;;;;5033759;28;20943;-68
2023/02/23 01:13:10;;;;;;;22.60;13.40;;;6.00;99.90;;;;;;5033774;28;20471;-66
2023/02/23 01:15:42;;;;;;;22.07;13.60;;;6.00;99.90;;;;;;5034009;28;20498;-68
2023/02/23 01:18:09;;;;;;;29.67;15.50;;;5.90;1.00;;;;;;5033724;28;20456;-68
2023/02/23 01:20:37;;;;;;;30.20;13.53;;;5.90;1.00;;;;;;5034042;28;20748;-67
2023/02/23 01:23:06;;;;;;;25.57;13.80;;;5.90;99.90;;;;;;5034091;28;20460;-67
2023/02/23 01:25:34;;;;;;;30.17;14.93;;;5.90;1.00;;;;;;5034097;28;20452;-67
2023/02/23 01:28:01;;;;;;;24.43;14.40;;;5.90;1.00;;;;;;5033551;28;20925;-67
2023/02/23 01:30:29;;;;;;;29.33;14.17;;;5.90;1.00;;;;;;5033583;28;20456;-67
2023/02/23 01:32:56;;;;;;;24.00;14.57;;;6.00;99.90;;;;;;5033869;28;20475;-67
2023/02/23 01:35:23;;;;;;;27.93;14.70;;;6.00;99.90;;;;;;5033435;28;20979;-67
2023/02/23 01:37:50;;;;;;;28.10;15.17;;;5.90;1.00;;;;;;5034942;28;20470;-67
2023/02/23 01:40:27;;;;;;;26.03;15.70;;;5.90;1.00;;;;;;5038016;28;20486;-67
2023/02/23 01:42:57;;;;;;;23.33;13.73;;;5.90;99.90;;;;;;5036967;28;20546;-67
2023/02/23 01:45:33;;;;;;;27.30;14.30;;;5.90;1.00;;;;;;5036822;28;20923;-67
2023/02/23 01:48:05;;;;;;;23.57;14.00;;;6.00;1.00;;;;;;5037347;28;20470;-67
2023/02/23 01:50:38;;;;;;;28.03;15.20;;;6.00;99.90;;;;;;5037150;28;20447;-67
2023/02/23 01:53:06;;;;;;;19.57;14.77;;;5.80;99.90;;;;;;5037420;28;20454;-67
2023/02/23 01:55:33;;;;;;;25.77;14.33;;;5.80;99.90;;;;;;5036922;28;20549;-67
2023/02/23 01:58:06;;;;;;;25.97;14.47;;;5.70;1.00;;;;;;5037189;28;20460;-67
2023/02/23 02:00:36;;;;;;;25.80;14.80;;;5.80;1.00;;;;;;5037760;28;20717;-66
2023/02/23 02:03:10;;;;;;;27.67;14.93;;;5.70;1.00;;;;;;5036850;28;20456;-67
2023/02/23 02:05:39;;;;;;;27.40;14.80;;;5.70;1.00;;;;;;5037041;28;20511;-67
2023/02/23 02:08:09;;;;;;;27.70;13.53;;;5.70;1.00;;;;;;5036685;28;20542;-67
2023/02/23 02:10:43;;;;;;;24.80;15.37;;;5.70;65.30;;;;;;5036616;28;20471;-67
2023/02/23 02:13:13;;;;;;;23.30;14.30;;;5.60;1.00;;;;;;5037041;28;20520;-67
2023/02/23 02:15:57;;;;;;;27.53;15.67;;;5.70;1.00;;;;;;5036713;28;20945;-67
2023/02/23 02:18:37;;;;;;;27.30;14.90;;;5.60;97.00;;;;;;5037026;28;20805;-67
2023/02/23 02:21:45;;;;;;;23.53;14.40;;;5.50;1.00;;;;;;5036616;28;20444;-67
2023/02/23 02:24:46;;;;;;;23.90;15.27;;;5.40;99.90;;;;;;5007762;28;20554;-68
2023/02/23 02:27:25;;;;;;;26.90;15.40;;;5.40;1.00;;;;;;5006698;28;20460;-66
2023/02/23 02:30:41;;;;;;;31.83;15.33;;;5.40;1.00;;;;;;5036693;28;20501;-67
2023/02/23 02:33:30;;;;;;;24.97;14.43;;;5.40;1.00;;;;;;5036649;28;20498;-67
2023/02/23 02:36:29;;;;;;;25.87;16.10;;;5.50;99.90;;;;;;5036350;28;20464;-68
2023/02/23 02:39:06;;;;;;;26.37;15.10;;;5.50;58.00;;;;;;5036833;28;20444;-67
2023/02/23 02:41:43;;;;;;;32.10;15.00;;;5.40;1.00;;;;;;5036315;28;20436;-67
2023/02/23 02:44:17;;;;;;;30.10;16.00;;;5.30;99.90;;;;;;5036689;28;20472;-67
2023/02/23 02:46:47;;;;;;;27.20;15.30;;;5.30;1.00;;;;;;5036618;28;20440;-68
2023/02/23 02:49:21;;;;;;;29.77;15.43;;;5.30;1.00;;;;;;5035720;28;20440;-67
2023/02/23 02:51:54;;;;;;;26.83;15.00;;;5.40;1.00;;;;;;5037498;28;20444;-66
2023/02/23 02:54:26;;;;;;;34.73;15.33;;;5.30;99.90;;;;;;5036461;28;20462;-66
2023/02/23 02:56:56;;;;;;;27.23;14.40;;;5.20;1.00;;;;;;5036036;28;20478;-68
2023/02/23 04:18:15;;;;;;;26.53;15.93;;;4.90;1.00;;;;;;5034868;28;20423;-68
2023/02/23 04:20:42;;;;;;;26.63;15.87;;;4.90;1.00;;;;;;5034840;28;20466;-67
2023/02/23 04:23:08;;;;;;;30.10;16.07;;;4.90;1.00;;;;;;5034615;28;20487;-67
2023/02/23 04:25:36;;;;;;;27.77;14.50;;;4.90;1.00;;;;;;5034350;28;20917;-68
2023/02/23 04:28:03;;;;;;;33.53;15.17;;;5.00;1.00;;;;;;5034650;28;20490;-67
2023/02/23 04:30:30;;;;;;;34.97;16.47;;;5.10;1.00;;;;;;5034392;28;20931;-68
2023/02/23 04:32:58;;;;;;;34.07;16.93;;;5.10;99.90;;;;;;5034649;28;20467;-67
2023/02/23 04:35:28;;;;;;;29.70;15.57;;;5.10;1.00;;;;;;5034740;28;20525;-68
2023/02/23 04:37:56;;;;;;;27.60;15.87;;;5.20;99.90;;;;;;5034269;28;20556;-67
2023/02/23 04:40:23;;;;;;;28.13;15.90;;;5.10;1.00;;;;;;5033600;28;20456;-67
2023/02/23 04:42:50;;;;;;;28.70;16.30;;;5.00;1.00;;;;;;5034083;28;20455;-67
2023/02/23 04:45:17;;;;;;;34.03;15.50;;;4.90;99.90;;;;;;5034286;28;20494;-67
2023/02/23 04:47:44;;;;;;;32.17;16.77;;;5.00;99.90;;;;;;5034549;28;20784;-67
2023/02/23 04:50:12;;;;;;;28.67;15.60;;;4.90;99.90;;;;;;5034189;28;20547;-67
2023/02/23 04:52:40;;;;;;;28.00;16.30;;;4.90;99.90;;;;;;5034279;28;20466;-67
2023/02/23 04:55:08;;;;;;;29.87;16.30;;;5.00;99.90;;;;;;5034406;28;20452;-68
2023/02/23 04:57:35;;;;;;;25.70;15.37;;;5.00;99.90;;;;;;5034334;28;20484;-67
2023/02/23 05:00:03;;;;;;;24.87;14.40;;;5.10;99.90;;;;;;5034519;28;20791;-67
2023/02/23 05:02:30;;;;;;;26.80;15.60;;;5.10;1.00;;;;;;5034148;28;20467;-68
2023/02/23 05:04:57;;;;;;;32.97;16.80;;;4.90;1.00;;;;;;5034321;28;20525;-67
2023/02/23 05:07:24;;;;;;;29.70;15.90;;;4.90;99.90;;;;;;5034818;28;20734;-67
2023/02/23 05:09:52;;;;;;;28.73;16.17;;;4.80;1.00;;;;;;5034483;28;20794;-68
2023/02/23 05:12:19;;;;;;;26.83;16.27;;;4.90;1.00;;;;;;5034264;28;20456;-68
2023/02/23 05:14:46;;;;;;;32.80;16.10;;;4.80;99.90;;;;;;5037851;28;20455;-67
2023/02/23 05:17:13;;;;;;;36.50;16.13;;;4.80;99.90;;;;;;5037847;28;20480;-68
2023/02/23 05:19:40;;;;;;;25.37;14.50;;;4.70;99.90;;;;;;5029615;28;20471;-66
2023/02/23 05:22:11;;;;;;;26.63;16.23;;;4.80;1.00;;;;;;5018809;28;20471;-67
2023/02/23 05:24:38;;;;;;;37.27;15.30;;;4.90;99.90;;;;;;5033784;28;20570;-67
2023/02/23 05:27:07;;;;;;;36.43;16.70;;;4.90;48.40;;;;;;5037564;28;20456;-67
2023/02/23 05:29:34;;;;;;;27.17;15.23;;;4.70;1.00;;;;;;5037570;28;20460;-68
2023/02/23 05:32:01;;;;;;;23.93;14.23;;;4.70;1.00;;;;;;5037514;28;20462;-68
2023/02/23 05:34:28;;;;;;;31.20;16.80;;;4.80;1.00;;;;;;5037654;28;20466;-68
2023/02/23 05:36:55;;;;;;;30.93;15.30;;;4.90;1.00;;;;;;5037628;28;20483;-68
2023/02/23 05:39:22;;;;;;;28.90;15.70;;;4.90;86.00;;;;;;5037595;28;20547;-67
2023/02/23 05:41:48;;;;;;;30.20;15.50;;;4.90;99.90;;;;;;5037396;28;20455;-67
2023/02/23 05:44:17;;;;;;;28.90;15.67;;;4.80;99.90;;;;;;5024181;28;20461;-67
2023/02/23 05:46:46;;;;;;;32.67;16.67;;;4.70;1.00;;;;;;5017748;28;20451;-68
2023/02/23 05:49:13;;;;;;;26.00;15.77;;;4.60;1.00;;;;;;5017870;28;20742;-68
2023/02/23 05:51:40;;;;;;;30.03;15.10;;;4.50;99.90;;;;;;5017605;28;20547;-67
2023/02/23 05:54:07;;;;;;;27.00;17.13;;;4.40;99.90;;;;;;5017428;28;20467;-68
2023/02/23 05:56:34;;;;;;;30.13;16.67;;;4.20;1.00;;;;;;5017325;28;20489;-67
2023/02/23 05:59:03;;;;;;;22.47;14.60;;;4.10;99.90;;;;;;5017095;28;20548;-67
2023/02/23 06:01:32;;;;;;;28.50;16.27;;;4.30;99.90;;;;;;5017150;28;20563;-68
2023/02/23 06:03:58;;;;;;;26.67;14.60;;;4.30;7.70;;;;;;5017284;28;20944;-68
2023/02/23 06:06:27;;;;;;;35.33;18.27;;;4.30;90.00;;;;;;5017252;28;20488;-67
2023/02/23 06:08:54;;;;;;;28.40;15.80;;;4.50;99.90;;;;;;5017494;28;20453;-67
2023/02/23 06:11:21;;;;;;;35.90;16.83;;;4.50;1.00;;;;;;5017242;28;20903;-66
2023/02/23 06:13:48;;;;;;;29.77;15.47;;;4.30;1.00;;;;;;5017121;28;20449;-67
2023/02/23 06:16:15;;;;;;;28.90;16.87;;;4.20;1.00;;;;;;5016906;28;20937;-67
2023/02/23 06:18:44;;;;;;;28.73;16.97;;;4.30;99.90;;;;;;5017140;28;20456;-67
2023/02/23 06:21:10;;;;;;;27.27;15.50;;;4.40;99.90;;;;;;5017092;28;20453;-67
2023/02/23 06:23:37;;;;;;;27.37;14.83;;;4.50;1.00;;;;;;5016650;28;20458;-68
2023/02/23 06:26:04;;;;;;;27.53;15.37;;;4.40;1.00;;;;;;5017138;28;20452;-67
2023/02/23 06:28:32;;;;;;;31.63;15.50;;;4.30;1.00;;;;;;5017081;28;20496;-67
2023/02/23 06:30:59;;;;;;;30.23;16.83;;;4.30;99.90;;;;;;5016899;28;20468;-67
2023/02/23 06:33:26;;;;;;;33.37;17.60;;;4.40;99.90;;;;;;5016677;28;21024;-68
2023/02/23 06:35:54;;;;;;;27.43;16.20;;;4.40;6.50;;;;;;5017307;28;20463;-67
2023/02/23 06:38:22;;;;;;;27.67;16.00;;;4.30;99.90;;;;;;5016863;28;20495;-67
2023/02/23 06:40:49;;;;;;;32.77;16.53;;;4.40;99.90;;;;;;5016572;28;20519;-68
2023/02/23 06:43:16;;;;;;;30.87;16.77;;;4.40;99.90;;;;;;5017536;28;20759;-66
2023/02/23 06:45:43;;;;;;;25.67;15.40;;;4.40;99.90;;;;;;5016507;28;20495;-68
2023/02/23 06:48:10;;;;;;;34.00;16.90;;;4.30;99.90;;;;;;5017212;28;20503;-66
2023/02/23 06:50:37;;;;;;;30.10;15.97;;;4.30;99.90;;;;;;5016513;28;20457;-67
2023/02/23 06:53:05;;;;;;;29.10;18.43;;;4.30;99.90;;;;;;5016869;28;20553;-68
2023/02/23 06:55:32;;;;;;;27.80;16.60;;;4.30;99.90;;;;;;5016358;28;20457;-68
2023/02/23 06:57:59;;;;;;;31.00;15.83;;;4.20;99.90;;;;;;5016190;28;20548;-67
2023/02/23 07:00:26;;;;;;;30.17;16.27;;;4.20;99.90;;;;;;5016534;28;20461;-67
2023/02/23 07:02:53;;;;;;;33.40;16.17;;;4.30;99.90;;;;;;5016611;28;20461;-67
2023/02/23 07:05:20;;;;;;;26.53;16.77;;;4.20;99.90;;;;;;5016362;28;20478;-68
2023/02/23 07:07:47;;;;;;;30.77;16.17;;;4.30;1.00;;;;;;5016569;28;20539;-67
2023/02/23 07:10:15;;;;;;;25.70;15.50;;;4.50;1.00;;;;;;5017231;28;20471;-67
2023/02/23 07:12:42;;;;;;;28.43;15.50;;;4.60;1.00;;;;;;5017476;28;20456;-67
2023/02/23 07:15:10;;;;;;;34.53;17.07;;;4.60;99.90;;;;;;5017007;28;20491;-67
2023/02/23 07:17:37;;;;;;;32.33;16.80;;;4.70;99.90;;;;;;5017640;28;20481;-68
2023/02/23 07:20:05;;;;;;;30.13;15.93;;;4.60;99.90;;;;;;5019366;28;20460;-68
2023/02/23 07:22:33;;;;;;;29.60;17.20;;;4.60;99.90;;;;;;5018270;28;20488;-68
2023/02/23 07:25:00;;;;;;;30.57;16.90;;;4.60;19.30;;;;;;5016126;28;20541;-67
2023/02/23 07:27:28;;;;;;;24.93;15.30;;;4.70;99.90;;;;;;5016502;28;20453;-67
2023/02/23 07:29:55;;;;;;;29.37;16.87;;;4.70;1.00;;;;;;5016058;28;20467;-68
2023/02/23 07:32:21;;;;;;;29.13;17.50;;;4.70;1.00;;;;;;5016255;28;20535;-67
2023/02/23 07:34:48;;;;;;;31.53;16.80;;;4.70;52.20;;;;;;5015894;28;20484;-68
2023/02/23 07:37:15;;;;;;;29.73;16.97;;;4.80;3.60;;;;;;5015035;28;20481;-66
2023/02/23 07:39:43;;;;;;;35.70;16.10;;;4.80;1.00;;;;;;5015770;28;20457;-67
2023/02/23 07:42:09;;;;;;;28.80;16.40;;;4.70;99.90;;;;;;5015756;28;20471;-68
2023/02/23 07:44:38;;;;;;;35.17;16.60;;;4.80;99.90;;;;;;5015894;28;20485;-67
2023/02/23 07:47:05;;;;;;;28.80;16.40;;;4.80;99.90;;;;;;5016095;28;20448;-68
2023/02/23 07:49:32;;;;;;;28.40;17.00;;;5.00;99.90;;;;;;5016310;28;20461;-68
2023/02/23 07:51:59;;;;;;;28.43;18.30;;;4.80;99.90;;;;;;5016435;28;20468;-68
2023/02/23 07:54:26;;;;;;;27.70;15.80;;;4.80;1.00;;;;;;5015291;28;20536;-68
2023/02/23 07:56:53;;;;;;;31.20;16.60;;;4.90;57.00;;;;;;5015421;28;20461;-67
2023/02/23 07:59:20;;;;;;;33.87;16.30;;;4.90;1.00;;;;;;5015075;28;20467;-68
2023/02/23 08:01:48;;;;;;;31.03;16.00;;;5.00;1.00;;;;;;5015458;28;20797;-67
2023/02/23 08:04:15;;;;;;;30.00;15.53;;;4.90;1.00;;;;;;5015705;28;20471;-67
2023/02/23 08:06:42;;;;;;;25.30;15.83;;;4.90;1.00;;;;;;5015354;28;20902;-67
2023/02/23 08:09:09;;;;;;;26.10;15.73;;;5.00;1.00;;;;;;5015646;28;20854;-68
2023/02/23 08:11:36;;;;;;;31.00;16.23;;;5.00;1.00;;;;;;5015131;28;20492;-67
2023/02/23 08:14:03;;;;;;;25.13;16.00;;;4.90;1.00;;;;;;5015182;28;20564;-68
2023/02/23 08:16:31;;;;;;;33.73;17.40;;;5.00;1.00;;;;;;5014824;28;20480;-67
2023/02/23 08:19:00;;;;;;;28.80;17.33;;;5.00;1.00;;;;;;5014874;28;20485;-68
2023/02/23 08:21:28;;;;;;;30.47;17.10;;;5.00;1.00;;;;;;5014978;28;20467;-68
2023/02/23 08:23:55;;;;;;;34.93;17.53;;;5.00;1.00;;;;;;5015107;28;20465;-67
2023/02/23 08:26:23;;;;;;;34.10;18.37;;;5.20;1.00;;;;;;5015023;28;20467;-68
2023/02/23 08:28:49;;;;;;;36.57;16.53;;;5.20;99.90;;;;;;5015119;28;20785;-67
2023/02/23 08:31:19;;;;;;;35.30;17.50;;;5.30;1.00;;;;;;5014561;28;20471;-68
2023/02/23 08:33:46;;;;;;;34.17;18.10;;;5.50;1.00;;;;;;5014729;28;20922;-68
2023/02/23 08:36:14;;;;;;;33.37;17.23;;;5.60;99.90;;;;;;5014911;28;20467;-68
2023/02/23 08:38:41;;;;;;;34.73;17.83;;;5.70;99.90;;;;;;5015038;28;20483;-67
2023/02/23 08:41:08;;;;;;;31.20;17.00;;;5.60;1.00;;;;;;5015264;28;20488;-67
2023/02/23 08:43:36;;;;;;;32.87;17.70;;;5.60;1.00;;;;;;5014896;28;20457;-67
2023/02/23 08:46:03;;;;;;;29.17;17.67;;;5.70;99.90;;;;;;5015472;28;20494;-69
2023/02/23 08:48:30;;;;;;;37.50;17.73;;;5.60;1.00;;;;;;5018303;28;20867;-67
2023/02/23 08:50:57;;;;;;;33.17;17.90;;;5.60;1.00;;;;;;5023390;28;20506;-65
2023/02/23 08:53:28;;;;;;;33.63;19.20;;;5.80;99.90;;;;;;5021233;28;20457;-64
2023/02/23 08:55:56;;;;;;;34.60;17.23;;;5.80;1.00;;;;;;5017646;28;20441;-64
2023/02/23 08:58:23;;;;;;;25.83;17.20;;;5.90;99.90;;;;;;5017298;28;20484;-64
2023/02/23 09:00:50;;;;;;;30.30;18.17;;;6.00;1.00;;;;;;5031154;28;20460;-64
2023/02/23 09:03:17;;;;;;;30.00;17.70;;;5.70;1.00;;;;;;5037391;28;20555;-64
2023/02/23 09:05:44;;;;;;;26.90;16.40;;;5.70;99.90;;;;;;5037493;28;20547;-63
2023/02/23 09:08:12;;;;;;;36.30;18.40;;;5.80;1.00;;;;;;5036697;28;20452;-63
2023/02/23 09:10:42;;;;;;;27.40;16.80;;;5.80;1.00;;;;;;5035724;28;20460;-66
2023/02/23 09:13:09;;;;;;;29.93;18.10;;;5.70;1.00;;;;;;5037187;28;20448;-64
2023/02/23 09:15:37;;;;;;;29.00;18.57;;;5.70;1.00;;;;;;5037255;28;20456;-64
2023/02/23 09:18:04;;;;;;;35.10;18.20;;;5.80;99.90;;;;;;5036836;28;20480;-63
2023/02/23 09:20:32;;;;;;;41.73;19.53;;;5.90;1.00;;;;;;5031223;28;20912;-64
2023/02/23 09:22:59;;;;;;;30.50;16.70;;;6.00;1.00;;;;;;5017268;28;20464;-62
2023/02/23 09:25:28;;;;;;;27.20;18.07;;;6.10;1.00;;;;;;5017063;28;20460;-65
2023/02/23 09:27:58;;;;;;;32.10;19.23;;;6.20;1.00;;;;;;5017807;28;20477;-62
2023/02/23 09:30:26;;;;;;;31.47;17.97;;;6.20;1.00;;;;;;5016966;28;20445;-65
2023/02/23 09:32:54;;;;;;;26.47;17.27;;;6.20;1.00;;;;;;5016845;28;20819;-64
2023/02/23 09:35:22;;;;;;;29.80;17.27;;;6.20;10.10;;;;;;5016714;28;20467;-64
2023/02/23 09:37:51;;;;;;;32.97;18.67;;;6.20;99.90;;;;;;5016705;28;20510;-63
2023/02/23 09:40:20;;;;;;;31.00;19.10;;;6.20;1.00;;;;;;5016838;28;20460;-63
2023/02/23 09:43:00;;;;;;;27.03;17.87;;;6.30;99.90;;;;;;5016661;28;20457;-66
2023/02/23 09:45:37;;;;;;;27.80;18.60;;;6.30;99.90;;;;;;4978087;28;1133123;-63
2023/02/23 09:48:15;;;;;;;31.30;17.80;;;6.40;99.90;;;;;;5017823;28;20273;-65
2023/02/23 09:50:47;;;;;;;31.30;17.43;;;6.50;99.90;;;;;;5018503;28;20543;-63
2023/02/23 09:53:30;;;;;;;30.87;17.40;;;6.50;99.90;;;;;;5017744;28;20441;-62
2023/02/23 09:55:59;;;;;;;28.73;17.40;;;6.50;1.00;;;;;;5018000;28;20468;-64
2023/02/23 09:58:30;;;;;;;33.60;19.20;;;6.50;1.00;;;;;;5017359;28;20485;-64
2023/02/23 10:01:18;;;;;;;31.53;17.87;;;6.60;1.00;;;;;;5017531;28;20916;-63
2023/02/23 10:03:52;;;;;;;31.17;18.97;;;6.70;1.00;;;;;;5018014;28;20453;-62
2023/02/23 10:06:19;;;;;;;34.50;18.90;;;6.80;1.00;;;;;;5017888;28;20445;-64
2023/02/23 10:08:54;;;;;;;31.90;18.77;;;6.90;99.90;;;;;;5017732;28;20874;-63
2023/02/23 10:11:27;;;;;;;27.87;17.53;;;7.00;1.00;;;;;;5017590;28;20445;-65
2023/02/23 10:14:07;;;;;;;30.80;17.40;;;7.10;99.90;;;;;;5017412;28;20543;-65
2023/02/23 10:16:46;;;;;;;25.77;17.73;;;7.20;1.00;;;;;;5017577;28;20441;-64
2023/02/23 10:19:20;;;;;;;30.10;18.73;;;7.40;99.90;;;;;;5017478;28;20468;-64
2023/02/23 10:21:55;;;;;;;29.90;18.23;;;7.40;1.00;;;;;;5017387;28;20442;-64
2023/02/23 10:24:25;;;;;;;33.17;19.10;;;7.50;1.00;;;;;;5017976;28;20437;-64
2023/02/23 10:26:55;;;;;;;30.97;18.53;;;7.70;1.00;;;;;;5017282;28;20449;-63
2023/02/23 10:29:28;;;;;;;31.93;18.40;;;7.80;1.00;;;;;;5017655;28;20467;-64
2023/02/23 10:31:59;;;;;;;30.27;18.63;;;8.00;99.90;;;;;;5017118;28;20491;-65
2023/02/23 10:34:28;;;;;;;32.73;18.73;;;8.00;99.90;;;;;;5017052;28;20784;-66
2023/02/23 10:37:00;;;;;;;36.67;17.90;;;8.20;1.00;;;;;;5024985;28;20567;-63
2023/02/23 10:39:28;;;;;;;35.27;19.10;;;8.20;99.90;;;;;;5032342;28;20551;-63
2023/02/23 10:41:58;;;;;;;31.43;17.97;;;8.30;1.00;;;;;;5016856;28;20828;-64
2023/02/23 10:44:28;;;;;;;30.27;18.70;;;8.40;1.00;;;;;;5016437;28;20518;-63
2023/02/23 10:46:58;;;;;;;29.70;17.40;;;8.60;1.00;;;;;;5017616;28;20455;-63
2023/02/23 10:49:30;;;;;;;34.83;17.40;;;8.80;1.00;;;;;;5018069;28;20461;-64
2023/02/23 10:52:01;;;;;;;38.27;20.37;;;8.90;1.00;;;;;;5017905;28;20552;-64
2023/02/23 10:54:36;;;;;;;29.27;19.60;;;9.00;1.00;;;;;;5018483;28;20816;-63
2023/02/23 10:57:05;;;;;;;31.00;18.80;;;9.00;99.90;;;;;;5017396;28;20752;-63
2023/02/23 10:59:34;;;;;;;32.63;18.83;;;9.10;99.90;;;;;;5016854;28;20495;-64
2023/02/23 11:02:22;;;;;;;31.70;18.63;;;9.20;99.90;;;;;;5016818;28;20467;-65
2023/02/23 11:04:55;;;;;;;28.30;19.40;;;9.40;99.90;;;;;;5023254;28;20905;-69
2023/02/23 11:07:25;;;;;;;30.43;19.80;;;9.50;99.90;;;;;;5023987;28;20477;-68
2023/02/23 11:09:52;;;;;;;36.60;21.03;;;9.60;99.90;;;;;;5023356;28;20472;-69
2023/02/23 11:12:21;;;;;;;35.73;20.80;;;9.60;99.90;;;;;;5023134;28;20495;-70
2023/02/23 11:14:51;;;;;;;36.87;22.10;;;9.50;99.90;;;;;;5023638;28;20485;-70
2023/02/23 11:17:29;;;;;;;34.60;23.20;;;9.60;99.90;;;;;;5023800;28;20541;-68
2023/02/23 11:20:05;;;;;;;33.27;22.23;;;9.70;99.90;;;;;;5022168;28;20469;-69
2023/02/23 11:22:35;;;;;;;37.20;22.47;;;9.80;99.90;;;;;;5020862;28;20544;-69
2023/02/23 11:25:14;;;;;;;34.40;23.17;;;9.90;99.90;;;;;;5020909;28;20451;-70
2023/02/23 11:27:50;;;;;;;35.70;21.90;;;10.00;99.90;;;;;;5020484;28;20481;-69
2023/02/23 11:30:23;;;;;;;41.93;20.87;;;10.10;1.00;;;;;;5019870;28;20455;-68
2023/02/23 11:32:52;;;;;;;35.50;20.47;;;10.10;2.70;;;;;;5021082;28;20442;-69
2023/02/23 11:35:29;;;;;;;29.73;19.47;;;10.20;99.10;;;;;;5020369;28;20545;-69
2023/02/23 11:37:56;;;;;;;34.20;18.90;;;10.20;1.00;;;;;;5021086;28;20488;-69
2023/02/23 11:40:25;;;;;;;36.03;19.83;;;10.30;1.00;;;;;;5020697;28;20467;-70
2023/02/23 11:42:54;;;;;;;30.53;20.03;;;10.20;1.00;;;;;;5023376;28;20547;-68
2023/02/23 11:45:24;;;;;;;32.63;19.90;;;10.20;1.00;;;;;;5023396;28;20485;-68
2023/02/23 11:47:53;;;;;;;33.90;23.17;;;10.40;1.00;;;;;;5024091;28;20463;-68
2023/02/23 11:50:24;;;;;;;33.13;22.53;;;10.60;1.00;;;;;;5024126;28;20543;-69
2023/02/23 11:53:00;;;;;;;36.73;23.67;;;10.80;1.00;;;;;;5023126;28;20469;-69
2023/02/23 11:55:28;;;;;;;40.57;22.00;;;10.90;1.00;;;;;;5023224;28;20500;-69
2023/02/23 11:58:20;;;;;;;29.77;21.00;;;11.10;1.00;;;;;;5023756;28;20852;-69
2023/02/23 12:00:56;;;;;;;30.60;18.00;;;11.20;1.00;;;;;;5022426;28;20437;-69
2023/02/23 12:03:25;;;;;;;32.30;18.73;;;11.30;1.00;;;;;;5020447;28;20503;-68
2023/02/23 12:05:56;;;;;;;33.37;19.90;;;11.50;1.00;;;;;;5020619;28;20476;-68
2023/02/23 12:08:34;;;;;;;30.47;18.27;;;11.50;1.00;;;;;;5019265;28;20890;-69
2023/02/23 12:11:06;;;;;;;29.63;18.63;;;11.80;1.00;;;;;;5020172;28;20451;-69
2023/02/23 12:13:38;;;;;;;27.23;18.50;;;12.00;99.90;;;;;;5019640;28;20441;-68
2023/02/23 12:16:14;;;;;;;27.40;18.77;;;12.30;99.90;;;;;;5020310;28;20488;-68
2023/02/23 12:18:48;;;;;;;30.53;19.37;;;12.60;99.90;;;;;;5021022;28;20532;-69
2023/02/23 12:21:35;;;;;;;34.90;19.83;;;12.70;99.90;;;;;;5020492;28;20503;-68
2023/02/23 12:24:18;;;;;;;30.07;20.43;;;12.80;99.90;;;;;;5020781;28;20537;-68
2023/02/23 12:26:51;;;;;;;30.90;18.27;;;13.10;99.90;;;;;;5020991;28;20498;-70
2023/02/23 12:29:28;;;;;;;29.90;17.87;;;13.20;99.90;;;;;;5020526;28;20543;-68
2023/02/23 12:32:01;;;;;;;24.70;17.30;;;13.30;99.90;;;;;;5020386;28;20844;-69
2023/02/23 12:34:34;;;;;;;27.83;18.27;;;13.40;99.90;;;;;;5021084;28;20831;-69
2023/02/23 12:37:11;;;;;;;23.80;17.20;;;13.10;99.90;;;;;;5019754;28;20465;-69
2023/02/23 12:39:43;;;;;;;27.57;18.00;;;13.20;99.90;;;;;;5019869;28;20919;-69
2023/02/23 12:42:19;;;;;;;29.33;18.60;;;13.20;99.90;;;;;;5020220;28;20537;-70
2023/02/23 12:44:52;;;;;;;24.23;16.97;;;13.10;99.90;;;;;;5020455;28;20977;-68
2023/02/23 12:47:27;;;;;;;27.57;18.30;;;13.00;99.90;;;;;;5021831;28;20472;-68
2023/02/23 12:49:59;;;;;;;29.20;19.43;;;13.10;99.90;;;;;;5021550;28;20448;-68
2023/02/23 12:52:30;;;;;;;32.17;20.53;;;13.00;99.90;;;;;;5021278;28;20459;-69
2023/02/23 12:54:57;;;;;;;32.00;20.13;;;12.80;99.90;;;;;;5021207;28;20890;-68
2023/02/23 12:57:30;;;;;;;32.20;21.00;;;12.60;99.90;;;;;;5021500;28;20987;-70
2023/02/23 13:00:23;;;;;;;31.43;19.53;;;12.40;99.90;;;;;;5020671;28;20466;-68
2023/02/23 13:03:08;;;;;;;32.83;20.80;;;12.40;99.90;;;;;;5020389;28;20548;-70
2023/02/23 13:05:40;;;;;;;28.63;19.80;;;12.40;99.90;;;;;;5021060;28;20459;-69
2023/02/23 13:08:20;;;;;;;40.47;22.93;;;12.40;99.90;;;;;;5020279;28;20981;-69
2023/02/23 13:10:54;;;;;;;34.80;23.00;;;12.40;99.90;;;;;;5020156;28;20437;-69
2023/02/23 13:13:31;;;;;;;32.67;21.97;;;12.30;99.90;;;;;;5021473;28;20448;-68
2023/02/23 13:16:06;;;;;;;39.27;23.47;;;12.40;99.90;;;;;;5020036;28;20445;-69
2023/02/23 13:18:41;;;;;;;32.43;22.53;;;12.10;1.00;;;;;;5019373;28;20468;-69
2023/02/23 13:21:16;;;;;;;35.00;21.00;;;11.80;1.00;;;;;;5020067;28;20445;-70
2023/02/23 13:23:51;;;;;;;37.47;19.53;;;11.70;1.00;;;;;;5019393;28;20468;-69
2023/02/23 13:26:24;;;;;;;35.60;21.00;;;11.80;1.00;;;;;;5019318;28;20447;-69
2023/02/23 13:28:55;;;;;;;32.23;20.70;;;11.80;1.00;;;;;;5020587;28;20509;-69
2023/02/23 13:31:25;;;;;;;30.57;19.57;;;11.60;1.00;;;;;;5020187;28;20456;-68
2023/02/23 13:33:56;;;;;;;33.33;20.17;;;11.80;1.00;;;;;;5021214;28;20556;-68
2023/02/23 13:36:23;;;;;;;34.33;21.43;;;11.90;1.00;;;;;;5023533;28;20601;-68
2023/02/23 13:39:15;;;;;;;30.63;21.07;;;11.90;1.00;;;;;;5024909;28;20980;-69
2023/02/23 13:41:50;;;;;;;31.07;21.27;;;11.90;1.00;;;;;;5024314;28;20457;-69
2023/02/23 13:44:25;;;;;;;28.57;21.07;;;11.80;1.00;;;;;;5023202;28;20785;-69
2023/02/23 13:46:57;;;;;;;32.27;21.67;;;11.80;1.00;;;;;;5023371;28;20817;-69
2023/02/23 13:49:40;;;;;;;30.87;19.17;;;11.80;1.00;;;;;;5024262;28;20740;-69
2023/02/23 13:52:20;;;;;;;28.00;19.87;;;11.60;1.00;;;;;;5023379;28;20495;-69
2023/02/23 13:54:55;;;;;;;39.70;23.30;;;11.40;99.90;;;;;;5023971;28;20457;-69
2023/02/23 13:57:23;;;;;;;31.47;22.30;;;11.10;99.90;;;;;;5025200;28;20852;-69
2023/02/23 13:59:51;;;;;;;36.30;23.87;;;11.10;1.00;;;;;;5023928;28;21047;-69
2023/02/23 14:02:27;;;;;;;35.60;22.90;;;11.10;1.00;;;;;;5024110;28;20461;-69
2023/02/23 14:05:01;;;;;;;35.57;23.20;;;11.10;1.00;;;;;;5024268;28;20498;-68
2023/02/23 14:07:31;;;;;;;34.00;24.23;;;10.80;99.90;;;;;;5023925;28;20476;-69
2023/02/23 14:10:03;;;;;;;31.27;21.80;;;10.80;1.00;;;;;;5022941;28;20519;-69
2023/02/23 14:12:36;;;;;;;36.80;24.67;;;10.70;1.00;;;;;;5022610;28;20978;-69
2023/02/23 14:15:40;;;;;;;34.03;21.60;;;10.60;1.00;;;;;;5024941;28;20460;-69
2023/02/23 14:18:29;;;;;;;32.60;22.03;;;10.50;99.90;;;;;;5023436;28;20449;-68